sensor_id;sensor_type;location;lat;lon;timestamp;P1;durP1;ratioP1;P2;durP2;ratioP2
10491;SDS011;5293;51.464;-2.566;2023-10-31T00:01:27;10.80;;;3.30;;
10491;SDS011;5293;51.464;-2.566;2023-10-31T00:03:53;8.27;;;2.73;;
10491;SDS011;5293;51.464;-2.566;2023-10-31T00:06:19;9.30;;;2.90;;
10491;SDS011;5293;51.464;-2.566;2023-10-31T00:08:45;7.97;;;2.97;;
10491;SDS011;5293;51.464;-2.566;2023-10-31T00:11:10;11.77;;;3.43;;
10491;SDS011;5293;51.464;-2.566;2023-10-31T00:13:37;6.37;;;2.93;;
10491;SDS011;5293;51.464;-2.566;2023-10-31T00:16:03;7.23;;;3.10;;
10491;SDS011;5293;51.464;-2.566;2023-10-31T00:18:28;7.83;;;2.70;;
10491;SDS011;5293;51.464;-2.566;2023-10-31T00:20:54;11.87;;;3.87;;
10491;SDS011;5293;51.464;-2.566;2023-10-31T00:23:21;6.67;;;2.57;;
10491;SDS011;5293;51.464;-2.566;2023-10-31T00:25:47;9.80;;;3.13;;
10491;SDS011;5293;51.464;-2.566;2023-10-31T00:28:13;6.73;;;2.83;;
10491;SDS011;5293;51.464;-2.566;2023-10-31T00:30:39;11.80;;;2.90;;
10491;SDS011;5293;51.464;-2.566;2023-10-31T00:33:04;7.33;;;3.63;;
10491;SDS011;5293;51.464;-2.566;2023-10-31T00:35:30;5.97;;;2.80;;
10491;SDS011;5293;51.464;-2.566;2023-10-31T00:37:56;7.27;;;2.53;;
10491;SDS011;5293;51.464;-2.566;2023-10-31T00:40:22;4.33;;;2.70;;
10491;SDS011;5293;51.464;-2.566;2023-10-31T00:42:47;9.50;;;3.00;;
10491;SDS011;5293;51.464;-2.566;2023-10-31T00:45:13;6.90;;;2.83;;
10491;SDS011;5293;51.464;-2.566;2023-10-31T00:47:39;5.93;;;2.03;;
10491;SDS011;5293;51.464;-2.566;2023-10-31T00:50:05;13.30;;;2.77;;
10491;SDS011;5293;51.464;-2.566;2023-10-31T00:52:31;8.70;;;2.37;;
10491;SDS011;5293;51.464;-2.566;2023-10-31T00:54:57;8.97;;;2.30;;
10491;SDS011;5293;51.464;-2.566;2023-10-31T00:57:22;9.97;;;2.63;;
10491;SDS011;5293;51.464;-2.566;2023-10-31T00:59:48;7.90;;;2.53;;
10491;SDS011;5293;51.464;-2.566;2023-10-31T01:02:13;6.20;;;2.20;;
10491;SDS011;5293;51.464;-2.566;2023-10-31T01:04:39;10.37;;;2.80;;
10491;SDS011;5293;51.464;-2.566;2023-10-31T01:07:05;7.53;;;3.13;;
10491;SDS011;5293;51.464;-2.566;2023-10-31T01:09:31;9.10;;;2.70;;
10491;SDS011;5293;51.464;-2.566;2023-10-31T01:11:56;6.30;;;2.27;;
10491;SDS011;5293;51.464;-2.566;2023-10-31T01:14:22;6.50;;;2.67;;
10491;SDS011;5293;51.464;-2.566;2023-10-31T01:16:48;7.90;;;2.47;;
10491;SDS011;5293;51.464;-2.566;2023-10-31T01:19:14;10.20;;;3.33;;
10491;SDS011;5293;51.464;-2.566;2023-10-31T01:21:39;3.80;;;2.30;;
10491;SDS011;5293;51.464;-2.566;2023-10-31T01:24:05;6.33;;;2.37;;
10491;SDS011;5293;51.464;-2.566;2023-10-31T01:26:31;6.13;;;2.73;;
10491;SDS011;5293;51.464;-2.566;2023-10-31T01:28:57;8.73;;;2.73;;
10491;SDS011;5293;51.464;-2.566;2023-10-31T01:31:23;7.90;;;2.50;;
10491;SDS011;5293;51.464;-2.566;2023-10-31T01:33:48;6.60;;;2.47;;
10491;SDS011;5293;51.464;-2.566;2023-10-31T01:36:14;9.83;;;2.50;;
10491;SDS011;5293;51.464;-2.566;2023-10-31T01:38:40;6.87;;;2.10;;
10491;SDS011;5293;51.464;-2.566;2023-10-31T01:41:06;4.57;;;2.07;;
10491;SDS011;5293;51.464;-2.566;2023-10-31T01:43:35;7.97;;;2.43;;
10491;SDS011;5293;51.464;-2.566;2023-10-31T01:46:02;9.47;;;2.43;;
10491;SDS011;5293;51.464;-2.566;2023-10-31T01:48:30;9.97;;;2.30;;
10491;SDS011;5293;51.464;-2.566;2023-10-31T01:50:58;8.93;;;2.60;;
10491;SDS011;5293;51.464;-2.566;2023-10-31T01:53:25;7.50;;;2.20;;
10491;SDS011;5293;51.464;-2.566;2023-10-31T01:55:53;2.90;;;2.00;;
10491;SDS011;5293;51.464;-2.566;2023-10-31T01:58:21;6.10;;;2.50;;
10491;SDS011;5293;51.464;-2.566;2023-10-31T02:00:50;4.60;;;2.33;;
10491;SDS011;5293;51.464;-2.566;2023-10-31T02:03:17;7.00;;;2.30;;
10491;SDS011;5293;51.464;-2.566;2023-10-31T02:05:42;5.77;;;2.70;;
10491;SDS011;5293;51.464;-2.566;2023-10-31T02:08:08;7.90;;;2.20;;
10491;SDS011;5293;51.464;-2.566;2023-10-31T02:10:34;10.80;;;2.47;;
10491;SDS011;5293;51.464;-2.566;2023-10-31T02:13:10;6.33;;;2.40;;
10491;SDS011;5293;51.464;-2.566;2023-10-31T02:15:36;8.33;;;2.30;;
10491;SDS011;5293;51.464;-2.566;2023-10-31T02:18:02;8.03;;;2.30;;
10491;SDS011;5293;51.464;-2.566;2023-10-31T02:20:28;8.23;;;2.30;;
10491;SDS011;5293;51.464;-2.566;2023-10-31T02:22:54;10.67;;;2.33;;
10491;SDS011;5293;51.464;-2.566;2023-10-31T02:25:19;8.90;;;2.47;;
10491;SDS011;5293;51.464;-2.566;2023-10-31T02:27:45;7.93;;;2.33;;
10491;SDS011;5293;51.464;-2.566;2023-10-31T02:30:11;5.63;;;2.30;;
10491;SDS011;5293;51.464;-2.566;2023-10-31T02:32:37;3.43;;;2.50;;
10491;SDS011;5293;51.464;-2.566;2023-10-31T02:35:03;4.37;;;1.73;;
10491;SDS011;5293;51.464;-2.566;2023-10-31T02:37:29;5.93;;;2.20;;
10491;SDS011;5293;51.464;-2.566;2023-10-31T02:39:55;4.20;;;2.20;;
10491;SDS011;5293;51.464;-2.566;2023-10-31T02:42:20;5.90;;;2.50;;
10491;SDS011;5293;51.464;-2.566;2023-10-31T02:44:46;5.10;;;1.97;;
10491;SDS011;5293;51.464;-2.566;2023-10-31T02:47:11;7.13;;;2.43;;
10491;SDS011;5293;51.464;-2.566;2023-10-31T02:49:37;6.63;;;2.07;;
10491;SDS011;5293;51.464;-2.566;2023-10-31T02:52:03;5.87;;;2.37;;
10491;SDS011;5293;51.464;-2.566;2023-10-31T02:54:28;8.03;;;2.57;;
10491;SDS011;5293;51.464;-2.566;2023-10-31T02:56:54;3.43;;;2.33;;
10491;SDS011;5293;51.464;-2.566;2023-10-31T02:59:20;7.13;;;2.60;;
10491;SDS011;5293;51.464;-2.566;2023-10-31T03:01:45;5.93;;;2.57;;
10491;SDS011;5293;51.464;-2.566;2023-10-31T03:04:11;6.00;;;2.67;;
10491;SDS011;5293;51.464;-2.566;2023-10-31T03:06:37;8.67;;;2.90;;
10491;SDS011;5293;51.464;-2.566;2023-10-31T03:09:02;5.27;;;2.40;;
10491;SDS011;5293;51.464;-2.566;2023-10-31T03:11:29;4.90;;;2.17;;
10491;SDS011;5293;51.464;-2.566;2023-10-31T03:13:54;8.97;;;2.20;;
10491;SDS011;5293;51.464;-2.566;2023-10-31T03:16:21;5.70;;;2.10;;
10491;SDS011;5293;51.464;-2.566;2023-10-31T03:18:47;4.20;;;2.63;;
10491;SDS011;5293;51.464;-2.566;2023-10-31T03:21:13;6.67;;;2.10;;
10491;SDS011;5293;51.464;-2.566;2023-10-31T03:23:40;10.67;;;2.30;;
10491;SDS011;5293;51.464;-2.566;2023-10-31T03:26:11;6.10;;;2.03;;
10491;SDS011;5293;51.464;-2.566;2023-10-31T03:28:37;7.40;;;1.80;;
10491;SDS011;5293;51.464;-2.566;2023-10-31T03:31:03;8.23;;;2.10;;
10491;SDS011;5293;51.464;-2.566;2023-10-31T03:33:28;6.53;;;2.50;;
10491;SDS011;5293;51.464;-2.566;2023-10-31T03:35:54;5.23;;;2.57;;
10491;SDS011;5293;51.464;-2.566;2023-10-31T03:38:20;7.73;;;2.30;;
10491;SDS011;5293;51.464;-2.566;2023-10-31T03:40:45;6.47;;;2.33;;
10491;SDS011;5293;51.464;-2.566;2023-10-31T03:43:11;3.17;;;1.83;;
10491;SDS011;5293;51.464;-2.566;2023-10-31T03:45:37;6.63;;;2.33;;
10491;SDS011;5293;51.464;-2.566;2023-10-31T03:48:03;8.00;;;2.57;;
10491;SDS011;5293;51.464;-2.566;2023-10-31T03:50:28;7.83;;;2.10;;
10491;SDS011;5293;51.464;-2.566;2023-10-31T03:52:54;4.97;;;2.13;;
10491;SDS011;5293;51.464;-2.566;2023-10-31T03:55:20;6.40;;;2.47;;
10491;SDS011;5293;51.464;-2.566;2023-10-31T03:57:45;7.97;;;3.13;;
10491;SDS011;5293;51.464;-2.566;2023-10-31T04:00:11;6.90;;;1.90;;
10491;SDS011;5293;51.464;-2.566;2023-10-31T04:02:38;7.17;;;2.40;;
10491;SDS011;5293;51.464;-2.566;2023-10-31T04:05:05;6.50;;;2.03;;
10491;SDS011;5293;51.464;-2.566;2023-10-31T04:07:31;5.73;;;2.53;;
10491;SDS011;5293;51.464;-2.566;2023-10-31T04:09:57;6.23;;;2.23;;
10491;SDS011;5293;51.464;-2.566;2023-10-31T04:12:23;5.73;;;2.30;;
10491;SDS011;5293;51.464;-2.566;2023-10-31T04:14:48;5.80;;;2.00;;
10491;SDS011;5293;51.464;-2.566;2023-10-31T04:17:14;10.50;;;2.17;;
10491;SDS011;5293;51.464;-2.566;2023-10-31T04:19:40;5.63;;;2.67;;
10491;SDS011;5293;51.464;-2.566;2023-10-31T04:22:05;5.37;;;2.03;;
10491;SDS011;5293;51.464;-2.566;2023-10-31T04:24:31;5.00;;;2.00;;
10491;SDS011;5293;51.464;-2.566;2023-10-31T04:26:56;7.00;;;2.57;;
10491;SDS011;5293;51.464;-2.566;2023-10-31T04:29:22;4.70;;;2.20;;
10491;SDS011;5293;51.464;-2.566;2023-10-31T04:31:48;3.47;;;2.03;;
10491;SDS011;5293;51.464;-2.566;2023-10-31T04:34:14;5.23;;;2.00;;
10491;SDS011;5293;51.464;-2.566;2023-10-31T04:36:39;6.43;;;2.13;;
10491;SDS011;5293;51.464;-2.566;2023-10-31T04:39:05;5.23;;;2.50;;
10491;SDS011;5293;51.464;-2.566;2023-10-31T04:41:31;9.07;;;2.30;;
10491;SDS011;5293;51.464;-2.566;2023-10-31T04:43:57;5.90;;;2.33;;
10491;SDS011;5293;51.464;-2.566;2023-10-31T04:46:24;4.93;;;2.23;;
10491;SDS011;5293;51.464;-2.566;2023-10-31T04:48:52;5.47;;;2.10;;
10491;SDS011;5293;51.464;-2.566;2023-10-31T04:51:18;8.40;;;1.87;;
10491;SDS011;5293;51.464;-2.566;2023-10-31T04:53:44;19.27;;;4.10;;
10491;SDS011;5293;51.464;-2.566;2023-10-31T04:56:13;6.23;;;2.87;;
10491;SDS011;5293;51.464;-2.566;2023-10-31T04:58:40;5.17;;;2.13;;
10491;SDS011;5293;51.464;-2.566;2023-10-31T05:01:12;8.80;;;2.57;;
10491;SDS011;5293;51.464;-2.566;2023-10-31T05:03:38;6.70;;;2.43;;
10491;SDS011;5293;51.464;-2.566;2023-10-31T05:06:05;5.67;;;2.17;;
10491;SDS011;5293;51.464;-2.566;2023-10-31T05:08:31;6.97;;;2.47;;
10491;SDS011;5293;51.464;-2.566;2023-10-31T05:10:57;11.20;;;2.37;;
10491;SDS011;5293;51.464;-2.566;2023-10-31T05:13:24;7.23;;;2.10;;
10491;SDS011;5293;51.464;-2.566;2023-10-31T05:15:49;6.30;;;2.20;;
10491;SDS011;5293;51.464;-2.566;2023-10-31T05:18:16;9.93;;;2.33;;
10491;SDS011;5293;51.464;-2.566;2023-10-31T05:20:42;9.03;;;2.50;;
10491;SDS011;5293;51.464;-2.566;2023-10-31T05:23:08;7.23;;;1.97;;
10491;SDS011;5293;51.464;-2.566;2023-10-31T05:25:34;6.30;;;2.17;;
10491;SDS011;5293;51.464;-2.566;2023-10-31T05:28:00;6.50;;;2.37;;
10491;SDS011;5293;51.464;-2.566;2023-10-31T05:30:26;7.80;;;3.00;;
10491;SDS011;5293;51.464;-2.566;2023-10-31T05:32:52;8.63;;;2.57;;
10491;SDS011;5293;51.464;-2.566;2023-10-31T05:35:18;11.17;;;2.27;;
10491;SDS011;5293;51.464;-2.566;2023-10-31T05:37:45;6.60;;;2.70;;
10491;SDS011;5293;51.464;-2.566;2023-10-31T05:40:11;5.43;;;2.37;;
10491;SDS011;5293;51.464;-2.566;2023-10-31T05:42:41;7.80;;;2.20;;
10491;SDS011;5293;51.464;-2.566;2023-10-31T05:45:06;5.13;;;2.70;;
10491;SDS011;5293;51.464;-2.566;2023-10-31T05:47:32;8.63;;;2.17;;
10491;SDS011;5293;51.464;-2.566;2023-10-31T05:49:58;7.53;;;2.60;;
10491;SDS011;5293;51.464;-2.566;2023-10-31T05:52:27;9.33;;;3.43;;
10491;SDS011;5293;51.464;-2.566;2023-10-31T05:54:54;11.97;;;2.77;;
10491;SDS011;5293;51.464;-2.566;2023-10-31T05:57:20;4.60;;;2.20;;
10491;SDS011;5293;51.464;-2.566;2023-10-31T05:59:45;6.47;;;2.40;;
10491;SDS011;5293;51.464;-2.566;2023-10-31T06:02:13;6.67;;;2.57;;
10491;SDS011;5293;51.464;-2.566;2023-10-31T06:04:39;8.00;;;2.47;;
10491;SDS011;5293;51.464;-2.566;2023-10-31T06:07:04;4.90;;;2.50;;
10491;SDS011;5293;51.464;-2.566;2023-10-31T06:09:31;8.40;;;3.07;;
10491;SDS011;5293;51.464;-2.566;2023-10-31T06:11:58;5.50;;;3.00;;
10491;SDS011;5293;51.464;-2.566;2023-10-31T06:14:24;5.03;;;2.83;;
10491;SDS011;5293;51.464;-2.566;2023-10-31T06:16:50;6.43;;;2.90;;
10491;SDS011;5293;51.464;-2.566;2023-10-31T06:19:16;5.30;;;2.17;;
10491;SDS011;5293;51.464;-2.566;2023-10-31T06:21:42;6.47;;;3.40;;
10491;SDS011;5293;51.464;-2.566;2023-10-31T06:24:07;5.47;;;2.23;;
10491;SDS011;5293;51.464;-2.566;2023-10-31T06:26:33;5.60;;;2.63;;
10491;SDS011;5293;51.464;-2.566;2023-10-31T06:28:59;7.63;;;2.57;;
10491;SDS011;5293;51.464;-2.566;2023-10-31T06:31:25;7.67;;;3.00;;
10491;SDS011;5293;51.464;-2.566;2023-10-31T06:33:50;5.90;;;2.60;;
10491;SDS011;5293;51.464;-2.566;2023-10-31T06:36:16;6.33;;;2.87;;
10491;SDS011;5293;51.464;-2.566;2023-10-31T06:38:42;5.37;;;2.90;;
10491;SDS011;5293;51.464;-2.566;2023-10-31T06:41:07;6.00;;;3.03;;
10491;SDS011;5293;51.464;-2.566;2023-10-31T06:43:33;4.63;;;2.47;;
10491;SDS011;5293;51.464;-2.566;2023-10-31T06:45:59;4.23;;;2.57;;
10491;SDS011;5293;51.464;-2.566;2023-10-31T06:48:27;4.60;;;2.57;;
10491;SDS011;5293;51.464;-2.566;2023-10-31T06:50:53;3.60;;;2.53;;
10491;SDS011;5293;51.464;-2.566;2023-10-31T06:53:18;7.90;;;2.43;;
10491;SDS011;5293;51.464;-2.566;2023-10-31T06:55:44;6.93;;;2.70;;
10491;SDS011;5293;51.464;-2.566;2023-10-31T06:58:09;8.73;;;2.53;;
10491;SDS011;5293;51.464;-2.566;2023-10-31T07:00:35;9.77;;;2.70;;
10491;SDS011;5293;51.464;-2.566;2023-10-31T07:03:02;6.33;;;2.50;;
10491;SDS011;5293;51.464;-2.566;2023-10-31T07:05:31;9.60;;;2.80;;
10491;SDS011;5293;51.464;-2.566;2023-10-31T07:07:57;5.13;;;2.57;;
10491;SDS011;5293;51.464;-2.566;2023-10-31T07:10:23;4.73;;;2.37;;
10491;SDS011;5293;51.464;-2.566;2023-10-31T07:12:48;6.70;;;2.50;;
10491;SDS011;5293;51.464;-2.566;2023-10-31T07:15:14;5.07;;;2.53;;
10491;SDS011;5293;51.464;-2.566;2023-10-31T07:17:40;4.90;;;2.60;;
10491;SDS011;5293;51.464;-2.566;2023-10-31T07:20:05;5.50;;;2.50;;
10491;SDS011;5293;51.464;-2.566;2023-10-31T07:22:32;5.47;;;2.60;;
10491;SDS011;5293;51.464;-2.566;2023-10-31T07:24:59;6.67;;;2.80;;
10491;SDS011;5293;51.464;-2.566;2023-10-31T07:27:28;6.97;;;3.07;;
10491;SDS011;5293;51.464;-2.566;2023-10-31T07:29:53;7.73;;;3.33;;
10491;SDS011;5293;51.464;-2.566;2023-10-31T07:32:19;10.20;;;2.80;;
10491;SDS011;5293;51.464;-2.566;2023-10-31T07:34:45;5.00;;;2.90;;
10491;SDS011;5293;51.464;-2.566;2023-10-31T07:37:10;2.60;;;2.40;;
10491;SDS011;5293;51.464;-2.566;2023-10-31T07:39:36;5.03;;;2.40;;
10491;SDS011;5293;51.464;-2.566;2023-10-31T07:42:02;10.10;;;2.47;;
10491;SDS011;5293;51.464;-2.566;2023-10-31T07:44:27;6.07;;;3.20;;
10491;SDS011;5293;51.464;-2.566;2023-10-31T07:46:53;4.83;;;2.20;;
10491;SDS011;5293;51.464;-2.566;2023-10-31T07:49:19;7.80;;;2.70;;
10491;SDS011;5293;51.464;-2.566;2023-10-31T07:51:45;7.37;;;2.60;;
10491;SDS011;5293;51.464;-2.566;2023-10-31T07:54:13;5.80;;;2.33;;
10491;SDS011;5293;51.464;-2.566;2023-10-31T07:56:39;8.33;;;2.60;;
10491;SDS011;5293;51.464;-2.566;2023-10-31T07:59:05;5.70;;;2.90;;
10491;SDS011;5293;51.464;-2.566;2023-10-31T08:01:32;5.40;;;2.20;;
10491;SDS011;5293;51.464;-2.566;2023-10-31T08:03:58;6.87;;;2.70;;
10491;SDS011;5293;51.464;-2.566;2023-10-31T08:06:24;7.37;;;3.00;;
10491;SDS011;5293;51.464;-2.566;2023-10-31T08:08:50;6.83;;;2.67;;
10491;SDS011;5293;51.464;-2.566;2023-10-31T08:11:15;5.27;;;2.93;;
10491;SDS011;5293;51.464;-2.566;2023-10-31T08:13:41;9.57;;;2.77;;
10491;SDS011;5293;51.464;-2.566;2023-10-31T08:16:07;9.47;;;3.10;;
10491;SDS011;5293;51.464;-2.566;2023-10-31T08:18:33;7.20;;;2.60;;
10491;SDS011;5293;51.464;-2.566;2023-10-31T08:20:59;6.73;;;2.70;;
10491;SDS011;5293;51.464;-2.566;2023-10-31T08:23:25;6.07;;;2.93;;
10491;SDS011;5293;51.464;-2.566;2023-10-31T08:25:51;7.53;;;2.73;;
10491;SDS011;5293;51.464;-2.566;2023-10-31T08:28:17;6.13;;;2.90;;
10491;SDS011;5293;51.464;-2.566;2023-10-31T08:30:42;8.90;;;3.00;;
10491;SDS011;5293;51.464;-2.566;2023-10-31T08:33:08;9.00;;;3.67;;
10491;SDS011;5293;51.464;-2.566;2023-10-31T08:35:34;5.93;;;3.00;;
10491;SDS011;5293;51.464;-2.566;2023-10-31T08:38:00;9.40;;;2.73;;
10491;SDS011;5293;51.464;-2.566;2023-10-31T08:40:25;5.30;;;2.73;;
10491;SDS011;5293;51.464;-2.566;2023-10-31T08:42:51;7.53;;;2.60;;
10491;SDS011;5293;51.464;-2.566;2023-10-31T08:45:17;5.73;;;2.30;;
10491;SDS011;5293;51.464;-2.566;2023-10-31T08:47:43;6.67;;;2.90;;
10491;SDS011;5293;51.464;-2.566;2023-10-31T08:50:09;8.93;;;3.20;;
10491;SDS011;5293;51.464;-2.566;2023-10-31T08:52:36;4.93;;;2.30;;
10491;SDS011;5293;51.464;-2.566;2023-10-31T08:55:02;5.43;;;2.60;;
10491;SDS011;5293;51.464;-2.566;2023-10-31T08:57:29;4.13;;;2.63;;
10491;SDS011;5293;51.464;-2.566;2023-10-31T08:59:55;4.80;;;2.30;;
10491;SDS011;5293;51.464;-2.566;2023-10-31T09:02:20;3.90;;;2.17;;
10491;SDS011;5293;51.464;-2.566;2023-10-31T09:04:46;6.63;;;2.57;;
10491;SDS011;5293;51.464;-2.566;2023-10-31T09:07:12;5.57;;;2.83;;
10491;SDS011;5293;51.464;-2.566;2023-10-31T09:09:37;4.77;;;2.00;;
10491;SDS011;5293;51.464;-2.566;2023-10-31T09:12:03;5.70;;;1.90;;
10491;SDS011;5293;51.464;-2.566;2023-10-31T09:14:29;3.47;;;1.87;;
10491;SDS011;5293;51.464;-2.566;2023-10-31T09:16:54;2.73;;;1.37;;
10491;SDS011;5293;51.464;-2.566;2023-10-31T09:19:20;4.23;;;1.67;;
10491;SDS011;5293;51.464;-2.566;2023-10-31T09:21:46;4.27;;;1.17;;
10491;SDS011;5293;51.464;-2.566;2023-10-31T09:24:11;1.63;;;1.20;;
10491;SDS011;5293;51.464;-2.566;2023-10-31T09:26:41;4.63;;;1.20;;
10491;SDS011;5293;51.464;-2.566;2023-10-31T09:29:08;4.17;;;1.30;;
10491;SDS011;5293;51.464;-2.566;2023-10-31T09:31:35;3.07;;;1.00;;
10491;SDS011;5293;51.464;-2.566;2023-10-31T09:34:01;6.97;;;1.47;;
10491;SDS011;5293;51.464;-2.566;2023-10-31T09:36:28;2.57;;;1.20;;
10491;SDS011;5293;51.464;-2.566;2023-10-31T09:38:56;5.83;;;1.07;;
10491;SDS011;5293;51.464;-2.566;2023-10-31T09:41:22;4.03;;;1.37;;
10491;SDS011;5293;51.464;-2.566;2023-10-31T09:43:48;2.43;;;1.17;;
10491;SDS011;5293;51.464;-2.566;2023-10-31T09:46:15;3.30;;;1.30;;
10491;SDS011;5293;51.464;-2.566;2023-10-31T09:48:42;1.07;;;0.70;;
10491;SDS011;5293;51.464;-2.566;2023-10-31T09:51:08;3.40;;;1.00;;
10491;SDS011;5293;51.464;-2.566;2023-10-31T09:53:38;1.23;;;0.57;;
10491;SDS011;5293;51.464;-2.566;2023-10-31T09:56:04;2.43;;;0.80;;
10491;SDS011;5293;51.464;-2.566;2023-10-31T09:58:31;6.03;;;1.33;;
10491;SDS011;5293;51.464;-2.566;2023-10-31T10:00:56;2.73;;;1.10;;
10491;SDS011;5293;51.464;-2.566;2023-10-31T10:03:22;2.23;;;0.90;;
10491;SDS011;5293;51.464;-2.566;2023-10-31T10:05:49;2.77;;;0.90;;
10491;SDS011;5293;51.464;-2.566;2023-10-31T10:08:15;2.73;;;0.70;;
10491;SDS011;5293;51.464;-2.566;2023-10-31T10:10:41;3.17;;;0.90;;
10491;SDS011;5293;51.464;-2.566;2023-10-31T10:13:07;3.13;;;0.80;;
10491;SDS011;5293;51.464;-2.566;2023-10-31T10:15:43;3.17;;;1.13;;
10491;SDS011;5293;51.464;-2.566;2023-10-31T10:18:25;2.07;;;0.63;;
10491;SDS011;5293;51.464;-2.566;2023-10-31T10:20:55;5.30;;;0.80;;
10491;SDS011;5293;51.464;-2.566;2023-10-31T10:23:24;4.87;;;0.77;;
10491;SDS011;5293;51.464;-2.566;2023-10-31T10:25:51;1.95;;;0.90;;
10491;SDS011;5293;51.464;-2.566;2023-10-31T10:28:17;4.50;;;1.07;;
10491;SDS011;5293;51.464;-2.566;2023-10-31T10:30:46;3.08;;;0.90;;
10491;SDS011;5293;51.464;-2.566;2023-10-31T10:33:13;1.77;;;0.53;;
10491;SDS011;5293;51.464;-2.566;2023-10-31T10:35:39;2.00;;;0.90;;
10491;SDS011;5293;51.464;-2.566;2023-10-31T10:38:06;4.63;;;0.90;;
10491;SDS011;5293;51.464;-2.566;2023-10-31T10:40:46;1.37;;;1.10;;
10491;SDS011;5293;51.464;-2.566;2023-10-31T10:43:17;1.10;;;0.90;;
10491;SDS011;5293;51.464;-2.566;2023-10-31T10:45:58;1.23;;;1.10;;
10491;SDS011;5293;51.464;-2.566;2023-10-31T10:48:25;1.57;;;0.60;;
10491;SDS011;5293;51.464;-2.566;2023-10-31T10:51:11;4.77;;;1.30;;
10491;SDS011;5293;51.464;-2.566;2023-10-31T10:53:51;3.45;;;0.80;;
10491;SDS011;5293;51.464;-2.566;2023-10-31T10:56:26;2.95;;;0.80;;
10491;SDS011;5293;51.464;-2.566;2023-10-31T10:59:14;3.80;;;1.00;;
10491;SDS011;5293;51.464;-2.566;2023-10-31T11:01:43;2.53;;;1.00;;
10491;SDS011;5293;51.464;-2.566;2023-10-31T11:04:13;4.30;;;1.20;;
10491;SDS011;5293;51.464;-2.566;2023-10-31T11:06:40;1.80;;;0.82;;
10491;SDS011;5293;51.464;-2.566;2023-10-31T11:09:07;1.27;;;0.80;;
10491;SDS011;5293;51.464;-2.566;2023-10-31T11:11:35;2.77;;;1.00;;
10491;SDS011;5293;51.464;-2.566;2023-10-31T11:14:03;2.47;;;0.90;;
10491;SDS011;5293;51.464;-2.566;2023-10-31T11:16:30;3.57;;;1.00;;
10491;SDS011;5293;51.464;-2.566;2023-10-31T11:19:04;1.50;;;0.83;;
10491;SDS011;5293;51.464;-2.566;2023-10-31T11:21:30;4.43;;;1.00;;
10491;SDS011;5293;51.464;-2.566;2023-10-31T11:24:00;1.73;;;1.10;;
10491;SDS011;5293;51.464;-2.566;2023-10-31T11:26:27;1.80;;;1.03;;
10491;SDS011;5293;51.464;-2.566;2023-10-31T11:29:04;3.27;;;1.07;;
10491;SDS011;5293;51.464;-2.566;2023-10-31T11:31:31;1.93;;;0.93;;
10491;SDS011;5293;51.464;-2.566;2023-10-31T11:34:00;3.40;;;1.13;;
10491;SDS011;5293;51.464;-2.566;2023-10-31T11:36:29;3.70;;;1.00;;
10491;SDS011;5293;51.464;-2.566;2023-10-31T11:41:50;2.80;;;1.00;;
10491;SDS011;5293;51.464;-2.566;2023-10-31T11:44:25;5.00;;;1.47;;
10491;SDS011;5293;51.464;-2.566;2023-10-31T11:46:52;4.50;;;1.30;;
10491;SDS011;5293;51.464;-2.566;2023-10-31T11:49:40;5.80;;;1.33;;
10491;SDS011;5293;51.464;-2.566;2023-10-31T11:52:16;5.33;;;1.40;;
10491;SDS011;5293;51.464;-2.566;2023-10-31T11:54:42;4.00;;;1.10;;
10491;SDS011;5293;51.464;-2.566;2023-10-31T11:57:08;5.53;;;1.30;;
10491;SDS011;5293;51.464;-2.566;2023-10-31T11:59:37;3.77;;;1.17;;
10491;SDS011;5293;51.464;-2.566;2023-10-31T12:02:16;4.47;;;1.33;;
10491;SDS011;5293;51.464;-2.566;2023-10-31T12:04:43;5.00;;;1.63;;
10491;SDS011;5293;51.464;-2.566;2023-10-31T12:07:09;3.83;;;1.40;;
10491;SDS011;5293;51.464;-2.566;2023-10-31T12:09:47;4.23;;;1.97;;
10491;SDS011;5293;51.464;-2.566;2023-10-31T12:12:13;5.73;;;1.50;;
10491;SDS011;5293;51.464;-2.566;2023-10-31T12:14:40;5.93;;;1.80;;
10491;SDS011;5293;51.464;-2.566;2023-10-31T12:17:06;7.37;;;1.80;;
10491;SDS011;5293;51.464;-2.566;2023-10-31T12:19:32;7.83;;;4.40;;
10491;SDS011;5293;51.464;-2.566;2023-10-31T12:21:58;11.20;;;2.07;;
10491;SDS011;5293;51.464;-2.566;2023-10-31T12:24:24;6.93;;;1.27;;
10491;SDS011;5293;51.464;-2.566;2023-10-31T12:26:49;1.50;;;1.13;;
10491;SDS011;5293;51.464;-2.566;2023-10-31T12:29:17;7.60;;;1.57;;
10491;SDS011;5293;51.464;-2.566;2023-10-31T12:31:53;3.40;;;0.90;;
10491;SDS011;5293;51.464;-2.566;2023-10-31T12:34:20;4.50;;;1.20;;
10491;SDS011;5293;51.464;-2.566;2023-10-31T12:36:47;7.57;;;1.10;;
10491;SDS011;5293;51.464;-2.566;2023-10-31T12:39:16;3.57;;;1.20;;
10491;SDS011;5293;51.464;-2.566;2023-10-31T12:41:43;6.23;;;0.90;;
10491;SDS011;5293;51.464;-2.566;2023-10-31T12:44:09;4.37;;;1.37;;
10491;SDS011;5293;51.464;-2.566;2023-10-31T12:46:41;3.27;;;1.30;;
10491;SDS011;5293;51.464;-2.566;2023-10-31T12:49:16;10.07;;;1.93;;
10491;SDS011;5293;51.464;-2.566;2023-10-31T12:51:59;2.77;;;1.40;;
10491;SDS011;5293;51.464;-2.566;2023-10-31T12:54:30;8.07;;;1.33;;
10491;SDS011;5293;51.464;-2.566;2023-10-31T12:57:06;7.07;;;1.30;;
10491;SDS011;5293;51.464;-2.566;2023-10-31T12:59:33;3.93;;;1.30;;
10491;SDS011;5293;51.464;-2.566;2023-10-31T13:02:01;4.40;;;1.53;;
10491;SDS011;5293;51.464;-2.566;2023-10-31T13:04:28;4.33;;;1.30;;
10491;SDS011;5293;51.464;-2.566;2023-10-31T13:06:59;8.07;;;1.73;;
10491;SDS011;5293;51.464;-2.566;2023-10-31T13:09:29;3.90;;;1.40;;
10491;SDS011;5293;51.464;-2.566;2023-10-31T13:12:00;8.77;;;1.47;;
10491;SDS011;5293;51.464;-2.566;2023-10-31T13:14:30;5.33;;;1.20;;
10491;SDS011;5293;51.464;-2.566;2023-10-31T13:16:55;2.63;;;1.20;;
10491;SDS011;5293;51.464;-2.566;2023-10-31T13:19:21;6.67;;;1.20;;
10491;SDS011;5293;51.464;-2.566;2023-10-31T13:21:47;4.17;;;1.10;;
10491;SDS011;5293;51.464;-2.566;2023-10-31T13:24:13;6.63;;;1.37;;
10491;SDS011;5293;51.464;-2.566;2023-10-31T13:26:39;4.27;;;1.23;;
10491;SDS011;5293;51.464;-2.566;2023-10-31T13:29:04;5.97;;;1.57;;
10491;SDS011;5293;51.464;-2.566;2023-10-31T13:31:30;4.40;;;1.30;;
10491;SDS011;5293;51.464;-2.566;2023-10-31T13:33:56;3.90;;;1.00;;
10491;SDS011;5293;51.464;-2.566;2023-10-31T13:36:21;5.43;;;1.10;;
10491;SDS011;5293;51.464;-2.566;2023-10-31T13:38:47;5.63;;;1.20;;
10491;SDS011;5293;51.464;-2.566;2023-10-31T13:41:14;7.33;;;1.20;;
10491;SDS011;5293;51.464;-2.566;2023-10-31T13:43:39;2.60;;;1.10;;
10491;SDS011;5293;51.464;-2.566;2023-10-31T13:46:05;7.40;;;1.90;;
10491;SDS011;5293;51.464;-2.566;2023-10-31T13:48:31;3.90;;;1.20;;
10491;SDS011;5293;51.464;-2.566;2023-10-31T13:50:57;3.90;;;1.13;;
10491;SDS011;5293;51.464;-2.566;2023-10-31T13:53:23;3.80;;;1.30;;
10491;SDS011;5293;51.464;-2.566;2023-10-31T13:55:48;5.40;;;1.23;;
10491;SDS011;5293;51.464;-2.566;2023-10-31T13:58:14;2.23;;;0.80;;
10491;SDS011;5293;51.464;-2.566;2023-10-31T14:00:40;4.50;;;1.00;;
10491;SDS011;5293;51.464;-2.566;2023-10-31T14:03:06;2.07;;;0.70;;
10491;SDS011;5293;51.464;-2.566;2023-10-31T14:05:32;5.03;;;1.10;;
10491;SDS011;5293;51.464;-2.566;2023-10-31T14:07:57;3.97;;;0.97;;
10491;SDS011;5293;51.464;-2.566;2023-10-31T14:10:23;3.23;;;0.77;;
10491;SDS011;5293;51.464;-2.566;2023-10-31T14:12:50;6.53;;;1.10;;
10491;SDS011;5293;51.464;-2.566;2023-10-31T14:15:17;5.00;;;1.27;;
10491;SDS011;5293;51.464;-2.566;2023-10-31T14:17:43;1.57;;;0.83;;
10491;SDS011;5293;51.464;-2.566;2023-10-31T14:20:09;6.53;;;1.30;;
10491;SDS011;5293;51.464;-2.566;2023-10-31T14:22:35;4.93;;;1.00;;
10491;SDS011;5293;51.464;-2.566;2023-10-31T14:25:01;3.53;;;1.03;;
10491;SDS011;5293;51.464;-2.566;2023-10-31T14:27:29;4.80;;;1.53;;
10491;SDS011;5293;51.464;-2.566;2023-10-31T14:29:55;8.93;;;1.30;;
10491;SDS011;5293;51.464;-2.566;2023-10-31T14:32:20;4.20;;;1.20;;
10491;SDS011;5293;51.464;-2.566;2023-10-31T14:34:46;5.63;;;1.33;;
10491;SDS011;5293;51.464;-2.566;2023-10-31T14:37:12;4.97;;;1.27;;
10491;SDS011;5293;51.464;-2.566;2023-10-31T14:39:38;4.13;;;1.40;;
10491;SDS011;5293;51.464;-2.566;2023-10-31T14:42:03;3.57;;;1.00;;
10491;SDS011;5293;51.464;-2.566;2023-10-31T14:44:29;4.53;;;1.20;;
10491;SDS011;5293;51.464;-2.566;2023-10-31T14:46:55;7.37;;;1.30;;
10491;SDS011;5293;51.464;-2.566;2023-10-31T14:49:21;4.20;;;1.20;;